PWSweather.com
Personal Weather Stations
Station Observations
IPUGLIAA10
Acquaviva Delle FontiIT 70021

Acquaviva Delle FontiIT 70021

Lat: 40.8906215, Lon: 16.8456484

Elevation: 1020

Station Type: Davis Vantage Vue

http://www.meteoacquaviva.it

Latest ConditionsUpdated 11:20:11 PM GMT+01:01 Sunday, Jan 19, 2020
Currently Today's Max Today's Min Today's Average
Temperature 45.8°F7.7°C 52.8°F11.6°C 41.0°F5.0°C 47.0°F8.3°C
Dew Point 42.2°F5.7°C 44.7°F7.1°C 38.3°F3.5°C 42.2°F5.7°C
Winds 1.2 mph WNW1.9 kmh WNW 5.8 mph -9.3 kmh - - 2.1 mph 3.4 kmh
Wind Gusts 3.5 mph5.6 kmh 11.5 mph18.5 kmh - -
Humidity 87% 91% 70% 84%
Pressure 30.34 in1027.4 mb 30.34 in1027.4 mb 30.06 in1017.9 mb -
Precipitation - 0.04 in1.0 mm - -
Hour Temp Dew Point Humidity Winds Wind Gusts Pressure Precip Precip Rate Daily Precip Total
11:20 PM 45.8°F7.7°C 42.2°F5.7°C 87% 1.2 mph WNW1.9 kmh WNW 3.5 mph5.6 kmh 30.34 in1027.4 mb - 0.00 in0.0 mm 0.04 in1.0 mm
11:10 PM 45.9°F7.7°C 42.2°F5.7°C 87% 1.2 mph NNE1.9 kmh NNE 2.3 mph3.7 kmh 30.34 in1027.4 mb - 0.00 in0.0 mm 0.04 in1.0 mm
11:00 PM 46.0°F7.8°C 42.3°F5.7°C 87% 1.2 mph N1.9 kmh N 4.6 mph7.4 kmh 30.33 in1027.1 mb - 0.00 in0.0 mm 0.04 in1.0 mm
10:50 PM 46.1°F7.8°C 42.5°F5.8°C 87% 2.3 mph NNW3.7 kmh NNW 3.5 mph5.6 kmh 30.33 in1027.1 mb - 0.00 in0.0 mm 0.04 in1.0 mm
10:40 PM 46.2°F7.9°C 42.5°F5.8°C 87% 2.3 mph N3.7 kmh N 3.5 mph5.6 kmh 30.32 in1026.8 mb - 0.00 in0.0 mm 0.04 in1.0 mm
10:30 PM 46.2°F7.9°C 42.5°F5.8°C 87% 3.5 mph NW5.6 kmh NW 9.2 mph14.8 kmh 30.32 in1026.8 mb - 0.00 in0.0 mm 0.04 in1.0 mm
10:20 PM 46.1°F7.8°C 42.4°F5.8°C 87% 2.3 mph NW3.7 kmh NW 4.6 mph7.4 kmh 30.32 in1026.8 mb - 0.00 in0.0 mm 0.04 in1.0 mm
10:10 PM 46.0°F7.8°C 42.3°F5.7°C 87% 4.6 mph NW7.4 kmh NW 4.6 mph7.4 kmh 30.32 in1026.8 mb - 0.00 in0.0 mm 0.04 in1.0 mm
10:00 PM 45.9°F7.7°C 42.2°F5.7°C 87% 2.3 mph NNW3.7 kmh NNW 4.6 mph7.4 kmh 30.32 in1026.8 mb - 0.00 in0.0 mm 0.04 in1.0 mm
09:50 PM 45.9°F7.7°C 42.3°F5.7°C 87% 2.3 mph WNW3.7 kmh WNW 3.5 mph5.6 kmh 30.32 in1026.8 mb - 0.00 in0.0 mm 0.04 in1.0 mm
09:40 PM 46.0°F7.8°C 42.6°F5.9°C 88% 2.3 mph NW3.7 kmh NW 4.6 mph7.4 kmh 30.32 in1026.8 mb - 0.00 in0.0 mm 0.04 in1.0 mm
09:30 PM 46.1°F7.8°C 42.7°F5.9°C 88% 1.2 mph WNW1.9 kmh WNW 2.3 mph3.7 kmh 30.31 in1026.4 mb - 0.00 in0.0 mm 0.04 in1.0 mm
09:20 PM 46.1°F7.8°C 42.8°F6.0°C 88% 2.3 mph W3.7 kmh W 3.5 mph5.6 kmh 30.31 in1026.4 mb - 0.00 in0.0 mm 0.04 in1.0 mm
09:10 PM 46.2°F7.9°C 42.8°F6.0°C 88% Calm Calm 1.2 mph1.9 kmh 30.31 in1026.4 mb - 0.00 in0.0 mm 0.04 in1.0 mm
09:00 PM 46.3°F7.9°C 42.9°F6.1°C 88% 1.2 mph NW1.9 kmh NW 3.5 mph5.6 kmh 30.30 in1026.1 mb - 0.00 in0.0 mm 0.04 in1.0 mm
08:50 PM 46.4°F8.0°C 43.0°F6.1°C 88% Calm Calm 1.2 mph1.9 kmh 30.30 in1026.1 mb - 0.00 in0.0 mm 0.04 in1.0 mm
08:40 PM 46.4°F8.0°C 43.0°F6.1°C 88% 1.2 mph WNW1.9 kmh WNW 2.3 mph3.7 kmh 30.30 in1026.1 mb - 0.00 in0.0 mm 0.04 in1.0 mm
08:30 PM 46.4°F8.0°C 43.1°F6.2°C 88% 1.2 mph W1.9 kmh W 2.3 mph3.7 kmh 30.30 in1026.1 mb - 0.00 in0.0 mm 0.04 in1.0 mm
08:20 PM 46.5°F8.1°C 43.1°F6.2°C 88% 3.5 mph W5.6 kmh W 6.9 mph11.1 kmh 30.29 in1025.7 mb - 0.00 in0.0 mm 0.04 in1.0 mm
08:10 PM 46.5°F8.1°C 43.1°F6.2°C 88% 1.2 mph WSW1.9 kmh WSW 2.3 mph3.7 kmh 30.29 in1025.7 mb - 0.00 in0.0 mm 0.04 in1.0 mm
08:00 PM 46.6°F8.1°C 43.2°F6.2°C 88% 1.2 mph WNW1.9 kmh WNW 3.5 mph5.6 kmh 30.29 in1025.7 mb - 0.00 in0.0 mm 0.04 in1.0 mm
07:50 PM 46.7°F8.2°C 43.6°F6.4°C 89% 1.2 mph W1.9 kmh W 3.5 mph5.6 kmh 30.28 in1025.4 mb - 0.00 in0.0 mm 0.04 in1.0 mm
07:40 PM 46.7°F8.2°C 43.6°F6.4°C 89% 1.2 mph WSW1.9 kmh WSW 3.5 mph5.6 kmh 30.28 in1025.4 mb - 0.00 in0.0 mm 0.04 in1.0 mm
07:30 PM 46.7°F8.2°C 43.6°F6.4°C 89% 1.2 mph NW1.9 kmh NW 3.5 mph5.6 kmh 30.28 in1025.4 mb - 0.00 in0.0 mm 0.04 in1.0 mm
07:20 PM 46.7°F8.2°C 43.6°F6.4°C 89% 1.2 mph WNW1.9 kmh WNW 3.5 mph5.6 kmh 30.27 in1025.1 mb - 0.00 in0.0 mm 0.04 in1.0 mm
07:10 PM 46.7°F8.2°C 43.7°F6.5°C 89% 1.2 mph NNW1.9 kmh NNW 2.3 mph3.7 kmh 30.27 in1025.1 mb - 0.00 in0.0 mm 0.04 in1.0 mm
07:00 PM 46.9°F8.3°C 43.8°F6.6°C 89% 2.3 mph NW3.7 kmh NW 5.8 mph9.3 kmh 30.27 in1025.1 mb - 0.00 in0.0 mm 0.04 in1.0 mm
06:50 PM 47.0°F8.3°C 43.9°F6.6°C 89% 2.3 mph NNW3.7 kmh NNW 4.6 mph7.4 kmh 30.26 in1024.7 mb - 0.01 in0.3 mm 0.04 in1.0 mm
06:40 PM 47.0°F8.3°C 43.6°F6.4°C 88% 3.5 mph NW5.6 kmh NW 4.6 mph7.4 kmh 30.26 in1024.7 mb - 0.02 in0.5 mm 0.04 in1.0 mm
06:30 PM 46.9°F8.3°C 43.5°F6.4°C 88% 3.5 mph NW5.6 kmh NW 6.9 mph11.1 kmh 30.26 in1024.7 mb - 0.02 in0.5 mm 0.04 in1.0 mm
06:20 PM 47.0°F8.3°C 43.6°F6.4°C 88% 2.3 mph WNW3.7 kmh WNW 3.5 mph5.6 kmh 30.25 in1024.4 mb - 0.04 in1.0 mm 0.04 in1.0 mm
06:10 PM 47.1°F8.4°C 43.7°F6.5°C 88% 2.3 mph N3.7 kmh N 3.5 mph5.6 kmh 30.24 in1024.0 mb - 0.04 in1.0 mm 0.04 in1.0 mm
06:00 PM 47.2°F8.4°C 43.8°F6.6°C 88% 2.3 mph NNW3.7 kmh NNW 3.5 mph5.6 kmh 30.24 in1024.0 mb - 0.04 in1.0 mm 0.04 in1.0 mm
05:50 PM 47.5°F8.6°C 44.1°F6.7°C 88% 2.3 mph WNW3.7 kmh WNW 3.5 mph5.6 kmh 30.23 in1023.7 mb - 0.04 in1.0 mm 0.04 in1.0 mm
05:40 PM 47.7°F8.7°C 44.0°F6.7°C 87% 2.3 mph N3.7 kmh N 3.5 mph5.6 kmh 30.23 in1023.7 mb - 0.03 in0.8 mm 0.03 in0.8 mm
05:30 PM 48.0°F8.9°C 44.3°F6.8°C 87% 1.2 mph N1.9 kmh N 2.3 mph3.7 kmh 30.23 in1023.7 mb - 0.03 in0.8 mm 0.03 in0.8 mm
05:20 PM 48.4°F9.1°C 44.4°F6.9°C 86% 1.2 mph NE1.9 kmh NE 3.5 mph5.6 kmh 30.23 in1023.7 mb - 0.02 in0.5 mm 0.02 in0.5 mm
05:10 PM 48.7°F9.3°C 44.4°F6.9°C 85% Calm Calm 1.2 mph1.9 kmh 30.22 in1023.4 mb - 0.01 in0.3 mm 0.01 in0.3 mm
05:00 PM 48.9°F9.4°C 44.0°F6.7°C 83% 2.3 mph NE3.7 kmh NE 3.5 mph5.6 kmh 30.22 in1023.4 mb - 0.00 in0.0 mm 0.00 in0.0 mm
04:50 PM 49.1°F9.5°C 44.1°F6.7°C 83% 2.3 mph NE3.7 kmh NE 3.5 mph5.6 kmh 30.21 in1023.0 mb - 0.00 in0.0 mm 0.00 in0.0 mm
04:40 PM 49.1°F9.5°C 44.5°F6.9°C 84% 2.3 mph NE3.7 kmh NE 3.5 mph5.6 kmh 30.21 in1023.0 mb - 0.00 in0.0 mm 0.00 in0.0 mm
04:30 PM 49.2°F9.6°C 44.6°F7.0°C 84% 2.3 mph NE3.7 kmh NE 3.5 mph5.6 kmh 30.21 in1023.0 mb - 0.00 in0.0 mm 0.00 in0.0 mm
04:20 PM 49.4°F9.7°C 44.5°F6.9°C 83% 2.3 mph NE3.7 kmh NE 3.5 mph5.6 kmh 30.20 in1022.7 mb - 0.00 in0.0 mm 0.00 in0.0 mm
04:10 PM 49.9°F9.9°C 44.3°F6.8°C 81% 4.6 mph NE7.4 kmh NE 8.1 mph13.0 kmh 30.20 in1022.7 mb - 0.00 in0.0 mm 0.00 in0.0 mm
04:00 PM 50.1°F10.1°C 43.8°F6.6°C 79% 2.3 mph NNE3.7 kmh NNE 3.5 mph5.6 kmh 30.19 in1022.4 mb - 0.00 in0.0 mm 0.00 in0.0 mm
03:50 PM 50.3°F10.2°C 43.7°F6.5°C 78% 3.5 mph N5.6 kmh N 4.6 mph7.4 kmh 30.19 in1022.4 mb - 0.00 in0.0 mm 0.00 in0.0 mm
03:40 PM 50.6°F10.3°C 43.7°F6.5°C 77% 3.5 mph NNE5.6 kmh NNE 4.6 mph7.4 kmh 30.18 in1022.0 mb - 0.00 in0.0 mm 0.00 in0.0 mm
03:30 PM 50.8°F10.4°C 43.8°F6.6°C 77% 3.5 mph NE5.6 kmh NE 4.6 mph7.4 kmh 30.18 in1022.0 mb - 0.00 in0.0 mm 0.00 in0.0 mm
03:20 PM 50.9°F10.5°C 43.9°F6.6°C 77% 2.3 mph NE3.7 kmh NE 4.6 mph7.4 kmh 30.18 in1022.0 mb - 0.00 in0.0 mm 0.00 in0.0 mm
03:10 PM 51.1°F10.6°C 43.8°F6.6°C 76% 3.5 mph NE5.6 kmh NE 4.6 mph7.4 kmh 30.17 in1021.7 mb - 0.00 in0.0 mm 0.00 in0.0 mm
03:00 PM 51.5°F10.8°C 43.8°F6.6°C 75% 4.6 mph N7.4 kmh N 11.5 mph18.5 kmh 30.17 in1021.7 mb - 0.00 in0.0 mm 0.00 in0.0 mm
02:50 PM 51.2°F10.7°C 43.9°F6.6°C 76% 4.6 mph NNE7.4 kmh NNE 6.9 mph11.1 kmh 30.17 in1021.7 mb - 0.00 in0.0 mm 0.00 in0.0 mm
02:40 PM 51.5°F10.8°C 43.8°F6.6°C 75% 3.5 mph NNE5.6 kmh NNE 6.9 mph11.1 kmh 30.16 in1021.3 mb - 0.00 in0.0 mm 0.00 in0.0 mm
02:30 PM 51.9°F11.1°C 43.5°F6.4°C 73% 3.5 mph NNE5.6 kmh NNE 4.6 mph7.4 kmh 30.16 in1021.3 mb - 0.00 in0.0 mm 0.00 in0.0 mm
02:20 PM 51.9°F11.1°C 43.8°F6.6°C 74% 3.5 mph NNE5.6 kmh NNE 6.9 mph11.1 kmh 30.16 in1021.3 mb - 0.00 in0.0 mm 0.00 in0.0 mm
02:10 PM 51.8°F11.0°C 43.4°F6.3°C 73% 4.6 mph NE7.4 kmh NE 6.9 mph11.1 kmh 30.16 in1021.3 mb - 0.00 in0.0 mm 0.00 in0.0 mm
02:00 PM 52.0°F11.1°C 43.6°F6.4°C 73% 4.6 mph N7.4 kmh N 9.2 mph14.8 kmh 30.16 in1021.3 mb - 0.00 in0.0 mm 0.00 in0.0 mm
01:50 PM 52.0°F11.1°C 43.3°F6.3°C 72% 5.8 mph N9.3 kmh N 8.1 mph13.0 kmh 30.16 in1021.3 mb - 0.00 in0.0 mm 0.00 in0.0 mm
01:40 PM 52.2°F11.2°C 43.4°F6.3°C 72% 4.6 mph NNE7.4 kmh NNE 6.9 mph11.1 kmh 30.15 in1021.0 mb - 0.00 in0.0 mm 0.00 in0.0 mm
01:30 PM 52.4°F11.3°C 43.3°F6.3°C 71% 4.6 mph N7.4 kmh N 8.1 mph13.0 kmh 30.15 in1021.0 mb - 0.00 in0.0 mm 0.00 in0.0 mm
01:20 PM 52.8°F11.6°C 43.3°F6.3°C 70% 5.8 mph NNE9.3 kmh NNE 10.4 mph16.7 kmh 30.15 in1021.0 mb - 0.00 in0.0 mm 0.00 in0.0 mm
01:10 PM 52.7°F11.5°C 43.2°F6.2°C 70% 4.6 mph NNE7.4 kmh NNE 10.4 mph16.7 kmh 30.15 in1021.0 mb - 0.00 in0.0 mm 0.00 in0.0 mm
01:00 PM 52.5°F11.4°C 43.4°F6.3°C 71% 2.3 mph NW3.7 kmh NW 4.6 mph7.4 kmh 30.15 in1021.0 mb - 0.00 in0.0 mm 0.00 in0.0 mm
12:50 PM 52.4°F11.3°C 42.9°F6.1°C 70% 3.5 mph N5.6 kmh N 9.2 mph14.8 kmh 30.15 in1021.0 mb - 0.00 in0.0 mm 0.00 in0.0 mm
12:40 PM 52.1°F11.2°C 43.0°F6.1°C 71% 3.5 mph NNW5.6 kmh NNW 5.8 mph9.3 kmh 30.14 in1020.7 mb - 0.00 in0.0 mm 0.00 in0.0 mm
12:30 PM 52.0°F11.1°C 43.3°F6.3°C 72% 4.6 mph NNE7.4 kmh NNE 6.9 mph11.1 kmh 30.15 in1021.0 mb - 0.00 in0.0 mm 0.00 in0.0 mm
12:20 PM 51.9°F11.1°C 43.5°F6.4°C 73% 2.3 mph NNW3.7 kmh NNW 6.9 mph11.1 kmh 30.15 in1021.0 mb - 0.00 in0.0 mm 0.00 in0.0 mm
12:10 PM 51.6°F10.9°C 43.2°F6.2°C 73% 3.5 mph NNE5.6 kmh NNE 5.8 mph9.3 kmh 30.15 in1021.0 mb - 0.00 in0.0 mm 0.00 in0.0 mm
12:00 PM 51.5°F10.8°C 43.5°F6.4°C 74% 3.5 mph N5.6 kmh N 5.8 mph9.3 kmh 30.15 in1021.0 mb - 0.00 in0.0 mm 0.00 in0.0 mm
11:50 AM 51.8°F11.0°C 43.1°F6.2°C 72% 5.8 mph NE9.3 kmh NE 9.2 mph14.8 kmh 30.15 in1021.0 mb - 0.00 in0.0 mm 0.00 in0.0 mm
11:40 AM 52.0°F11.1°C 43.9°F6.6°C 74% 3.5 mph NE5.6 kmh NE 5.8 mph9.3 kmh 30.15 in1021.0 mb - 0.00 in0.0 mm 0.00 in0.0 mm
11:30 AM 51.6°F10.9°C 43.6°F6.4°C 74% 2.3 mph NW3.7 kmh NW 3.5 mph5.6 kmh 30.15 in1021.0 mb - 0.00 in0.0 mm 0.00 in0.0 mm
11:20 AM 52.5°F11.4°C 44.1°F6.7°C 73% 3.5 mph N5.6 kmh N 4.6 mph7.4 kmh 30.15 in1021.0 mb - 0.00 in0.0 mm 0.00 in0.0 mm
11:10 AM 52.5°F11.4°C 44.1°F6.7°C 73% 3.5 mph N5.6 kmh N 5.8 mph9.3 kmh 30.15 in1021.0 mb - 0.00 in0.0 mm 0.00 in0.0 mm
11:00 AM 51.7°F10.9°C 44.1°F6.7°C 75% 2.3 mph N3.7 kmh N 3.5 mph5.6 kmh 30.15 in1021.0 mb - 0.00 in0.0 mm 0.00 in0.0 mm
10:50 AM 51.3°F10.7°C 43.6°F6.4°C 75% 3.5 mph WNW5.6 kmh WNW 5.8 mph9.3 kmh 30.15 in1021.0 mb - 0.00 in0.0 mm 0.00 in0.0 mm
10:40 AM 51.4°F10.8°C 44.1°F6.7°C 76% 3.5 mph NNE5.6 kmh NNE 8.1 mph13.0 kmh 30.15 in1021.0 mb - 0.00 in0.0 mm 0.00 in0.0 mm
10:30 AM 51.3°F10.7°C 44.3°F6.8°C 77% 2.3 mph NNE3.7 kmh NNE 5.8 mph9.3 kmh 30.14 in1020.7 mb - 0.00 in0.0 mm 0.00 in0.0 mm
10:20 AM 51.0°F10.6°C 44.3°F6.8°C 78% 3.5 mph N5.6 kmh N 5.8 mph9.3 kmh 30.14 in1020.7 mb - 0.00 in0.0 mm 0.00 in0.0 mm
10:10 AM 50.7°F10.4°C 44.7°F7.1°C 80% Calm Calm 1.2 mph1.9 kmh 30.14 in1020.7 mb - 0.00 in0.0 mm 0.00 in0.0 mm
10:00 AM 50.1°F10.1°C 44.5°F6.9°C 81% 1.2 mph NW1.9 kmh NW 3.5 mph5.6 kmh 30.13 in1020.3 mb - 0.00 in0.0 mm 0.00 in0.0 mm
09:50 AM 49.5°F9.7°C 44.6°F7.0°C 83% 3.5 mph NNW5.6 kmh NNW 6.9 mph11.1 kmh 30.13 in1020.3 mb - 0.00 in0.0 mm 0.00 in0.0 mm
09:40 AM 48.3°F9.1°C 44.0°F6.7°C 85% 1.2 mph W1.9 kmh W 2.3 mph3.7 kmh 30.13 in1020.3 mb - 0.00 in0.0 mm 0.00 in0.0 mm
09:30 AM 47.6°F8.7°C 43.6°F6.4°C 86% 1.2 mph NW1.9 kmh NW 3.5 mph5.6 kmh 30.13 in1020.3 mb - 0.00 in0.0 mm 0.00 in0.0 mm
09:20 AM 47.9°F8.8°C 44.2°F6.8°C 87% Calm Calm 3.5 mph5.6 kmh 30.13 in1020.3 mb - 0.00 in0.0 mm 0.00 in0.0 mm
09:10 AM 47.2°F8.4°C 43.8°F6.6°C 88% 2.3 mph W3.7 kmh W 3.5 mph5.6 kmh 30.12 in1020.0 mb - 0.00 in0.0 mm 0.00 in0.0 mm
09:00 AM 46.3°F7.9°C 42.9°F6.1°C 88% 2.3 mph W3.7 kmh W 3.5 mph5.6 kmh 30.12 in1020.0 mb - 0.00 in0.0 mm 0.00 in0.0 mm
08:50 AM 46.0°F7.8°C 43.0°F6.1°C 89% Calm Calm 1.2 mph1.9 kmh 30.12 in1020.0 mb - 0.00 in0.0 mm 0.00 in0.0 mm
08:40 AM 45.4°F7.4°C 42.3°F5.7°C 89% 2.3 mph WSW3.7 kmh WSW 6.9 mph11.1 kmh 30.12 in1020.0 mb - 0.00 in0.0 mm 0.00 in0.0 mm
08:30 AM 44.6°F7.0°C 41.9°F5.5°C 90% Calm Calm 1.2 mph1.9 kmh 30.12 in1020.0 mb - 0.00 in0.0 mm 0.00 in0.0 mm
08:20 AM 44.0°F6.7°C 41.2°F5.1°C 90% 1.2 mph WNW1.9 kmh WNW 3.5 mph5.6 kmh 30.12 in1020.0 mb - 0.00 in0.0 mm 0.00 in0.0 mm
08:10 AM 43.4°F6.3°C 40.7°F4.8°C 90% 1.2 mph SW1.9 kmh SW 1.2 mph1.9 kmh 30.12 in1020.0 mb - 0.00 in0.0 mm 0.00 in0.0 mm
08:00 AM 42.9°F6.1°C 40.2°F4.6°C 90% 1.2 mph WSW1.9 kmh WSW 2.3 mph3.7 kmh 30.11 in1019.6 mb - 0.00 in0.0 mm 0.00 in0.0 mm
07:50 AM 42.5°F5.8°C 39.8°F4.3°C 90% 1.2 mph WSW1.9 kmh WSW 3.5 mph5.6 kmh 30.11 in1019.6 mb - 0.00 in0.0 mm 0.00 in0.0 mm
07:40 AM 42.2°F5.7°C 39.5°F4.2°C 90% 1.2 mph WSW1.9 kmh WSW 1.2 mph1.9 kmh 30.11 in1019.6 mb - 0.00 in0.0 mm 0.00 in0.0 mm
07:30 AM 41.9°F5.5°C 39.2°F4.0°C 90% 1.2 mph SW1.9 kmh SW 3.5 mph5.6 kmh 30.11 in1019.6 mb - 0.00 in0.0 mm 0.00 in0.0 mm
07:20 AM 41.8°F5.4°C 39.4°F4.1°C 91% 2.3 mph WSW3.7 kmh WSW 3.5 mph5.6 kmh 30.11 in1019.6 mb - 0.00 in0.0 mm 0.00 in0.0 mm
07:10 AM 41.3°F5.2°C 38.8°F3.8°C 91% 1.2 mph SW1.9 kmh SW 2.3 mph3.7 kmh 30.11 in1019.6 mb - 0.00 in0.0 mm 0.00 in0.0 mm
07:00 AM 41.0°F5.0°C 38.3°F3.5°C 90% 1.2 mph WSW1.9 kmh WSW 2.3 mph3.7 kmh 30.11 in1019.6 mb - 0.00 in0.0 mm 0.00 in0.0 mm
06:50 AM 41.0°F5.0°C 38.3°F3.5°C 90% 1.2 mph SW1.9 kmh SW 2.3 mph3.7 kmh 30.10 in1019.3 mb - 0.00 in0.0 mm 0.00 in0.0 mm
06:40 AM 41.0°F5.0°C 38.3°F3.5°C 90% 1.2 mph SW1.9 kmh SW 1.2 mph1.9 kmh 30.10 in1019.3 mb - 0.00 in0.0 mm 0.00 in0.0 mm
06:30 AM 41.5°F5.3°C 38.8°F3.8°C 90% 2.3 mph WSW3.7 kmh WSW 3.5 mph5.6 kmh 30.10 in1019.3 mb - 0.00 in0.0 mm 0.00 in0.0 mm
06:20 AM 41.7°F5.4°C 39.0°F3.9°C 90% 2.3 mph WSW3.7 kmh WSW 3.5 mph5.6 kmh 30.09 in1019.0 mb - 0.00 in0.0 mm 0.00 in0.0 mm
06:10 AM 42.0°F5.6°C 39.3°F4.1°C 90% 1.2 mph SW1.9 kmh SW 3.5 mph5.6 kmh 30.09 in1019.0 mb - 0.00 in0.0 mm 0.00 in0.0 mm
06:00 AM 42.2°F5.7°C 39.5°F4.2°C 90% Calm Calm 2.3 mph3.7 kmh 30.09 in1019.0 mb - 0.00 in0.0 mm 0.00 in0.0 mm
05:50 AM 41.9°F5.5°C 38.9°F3.8°C 89% Calm Calm 1.2 mph1.9 kmh 30.09 in1019.0 mb - 0.00 in0.0 mm 0.00 in0.0 mm
05:40 AM 41.9°F5.5°C 38.9°F3.8°C 89% Calm Calm -- 30.09 in1019.0 mb - 0.00 in0.0 mm 0.00 in0.0 mm
05:30 AM 42.0°F5.6°C 39.0°F3.9°C 89% 1.2 mph SW1.9 kmh SW 2.3 mph3.7 kmh 30.09 in1019.0 mb - 0.00 in0.0 mm 0.00 in0.0 mm
05:20 AM 42.8°F6.0°C 39.8°F4.3°C 89% Calm Calm 1.2 mph1.9 kmh 30.09 in1019.0 mb - 0.00 in0.0 mm 0.00 in0.0 mm
05:10 AM 42.8°F6.0°C 39.8°F4.3°C 89% 1.2 mph NW1.9 kmh NW 3.5 mph5.6 kmh 30.08 in1018.6 mb - 0.00 in0.0 mm 0.00 in0.0 mm
05:00 AM 42.9°F6.1°C 39.9°F4.4°C 89% Calm Calm 2.3 mph3.7 kmh 30.08 in1018.6 mb - 0.00 in0.0 mm 0.00 in0.0 mm
04:50 AM 43.1°F6.2°C 40.1°F4.5°C 89% 1.2 mph WSW1.9 kmh WSW 2.3 mph3.7 kmh 30.08 in1018.6 mb - 0.00 in0.0 mm 0.00 in0.0 mm
04:40 AM 43.2°F6.2°C 40.2°F4.6°C 89% Calm Calm 1.2 mph1.9 kmh 30.07 in1018.3 mb - 0.00 in0.0 mm 0.00 in0.0 mm
04:30 AM 43.2°F6.2°C 40.2°F4.6°C 89% 1.2 mph W1.9 kmh W 2.3 mph3.7 kmh 30.08 in1018.6 mb - 0.00 in0.0 mm 0.00 in0.0 mm
04:20 AM 43.3°F6.3°C 40.3°F4.6°C 89% 1.2 mph WSW1.9 kmh WSW 3.5 mph5.6 kmh 30.08 in1018.6 mb - 0.00 in0.0 mm 0.00 in0.0 mm
04:10 AM 43.4°F6.3°C 40.1°F4.5°C 88% 2.3 mph WSW3.7 kmh WSW 3.5 mph5.6 kmh 30.08 in1018.6 mb - 0.00 in0.0 mm 0.00 in0.0 mm
04:00 AM 43.7°F6.5°C 40.4°F4.7°C 88% 1.2 mph WSW1.9 kmh WSW 2.3 mph3.7 kmh 30.08 in1018.6 mb - 0.00 in0.0 mm 0.00 in0.0 mm
03:50 AM 44.0°F6.7°C 40.7°F4.8°C 88% 1.2 mph SW1.9 kmh SW 3.5 mph5.6 kmh 30.08 in1018.6 mb - 0.00 in0.0 mm 0.00 in0.0 mm
03:40 AM 44.3°F6.8°C 41.0°F5.0°C 88% Calm Calm 1.2 mph1.9 kmh 30.08 in1018.6 mb - 0.00 in0.0 mm 0.00 in0.0 mm
03:30 AM 44.7°F7.1°C 41.1°F5.1°C 87% 1.2 mph W1.9 kmh W 3.5 mph5.6 kmh 30.08 in1018.6 mb - 0.00 in0.0 mm 0.00 in0.0 mm
03:20 AM 45.0°F7.2°C 41.4°F5.2°C 87% 1.2 mph WSW1.9 kmh WSW 2.3 mph3.7 kmh 30.08 in1018.6 mb - 0.00 in0.0 mm 0.00 in0.0 mm
03:10 AM 45.3°F7.4°C 41.7°F5.4°C 87% 1.2 mph SW1.9 kmh SW 1.2 mph1.9 kmh 30.08 in1018.6 mb - 0.00 in0.0 mm 0.00 in0.0 mm
03:00 AM 45.5°F7.5°C 41.6°F5.3°C 86% 2.3 mph NW3.7 kmh NW 4.6 mph7.4 kmh 30.08 in1018.6 mb - 0.00 in0.0 mm 0.00 in0.0 mm
02:50 AM 45.5°F7.5°C 41.6°F5.3°C 86% 2.3 mph W3.7 kmh W 3.5 mph5.6 kmh 30.08 in1018.6 mb - 0.00 in0.0 mm 0.00 in0.0 mm
02:40 AM 45.3°F7.4°C 41.4°F5.2°C 86% 1.2 mph NW1.9 kmh NW 4.6 mph7.4 kmh 30.08 in1018.6 mb - 0.00 in0.0 mm 0.00 in0.0 mm
02:30 AM 45.1°F7.3°C 40.8°F4.9°C 85% 1.2 mph W1.9 kmh W 4.6 mph7.4 kmh 30.08 in1018.6 mb - 0.00 in0.0 mm 0.00 in0.0 mm
02:20 AM 45.0°F7.2°C 40.5°F4.7°C 84% 1.2 mph W1.9 kmh W 2.3 mph3.7 kmh 30.08 in1018.6 mb - 0.00 in0.0 mm 0.00 in0.0 mm
02:10 AM 45.0°F7.2°C 40.2°F4.6°C 83% 1.2 mph N1.9 kmh N 1.2 mph1.9 kmh 30.08 in1018.6 mb - 0.00 in0.0 mm 0.00 in0.0 mm
02:00 AM 45.2°F7.3°C 40.4°F4.7°C 83% 3.5 mph WSW5.6 kmh WSW 4.6 mph7.4 kmh 30.08 in1018.6 mb - 0.00 in0.0 mm 0.00 in0.0 mm
01:50 AM 45.6°F7.6°C 40.4°F4.7°C 82% 2.3 mph WSW3.7 kmh WSW 3.5 mph5.6 kmh 30.07 in1018.3 mb - 0.00 in0.0 mm 0.00 in0.0 mm
01:40 AM 45.6°F7.6°C 40.4°F4.7°C 82% 2.3 mph WSW3.7 kmh WSW 4.6 mph7.4 kmh 30.07 in1018.3 mb - 0.00 in0.0 mm 0.00 in0.0 mm
01:30 AM 45.2°F7.3°C 40.0°F4.4°C 82% 3.5 mph WSW5.6 kmh WSW 5.8 mph9.3 kmh 30.07 in1018.3 mb - 0.00 in0.0 mm 0.00 in0.0 mm
01:20 AM 44.6°F7.0°C 39.8°F4.3°C 83% 2.3 mph WSW3.7 kmh WSW 3.5 mph5.6 kmh 30.07 in1018.3 mb - 0.00 in0.0 mm 0.00 in0.0 mm
01:10 AM 44.0°F6.7°C 39.2°F4.0°C 83% Calm Calm 2.3 mph3.7 kmh 30.07 in1018.3 mb - 0.00 in0.0 mm 0.00 in0.0 mm
01:00 AM 44.1°F6.7°C 39.3°F4.1°C 83% Calm Calm 1.2 mph1.9 kmh 30.06 in1017.9 mb - 0.00 in0.0 mm 0.00 in0.0 mm
12:50 AM 44.3°F6.8°C 39.5°F4.2°C 83% 2.3 mph SW3.7 kmh SW 3.5 mph5.6 kmh 30.06 in1017.9 mb - 0.00 in0.0 mm 0.00 in0.0 mm
12:40 AM 44.5°F6.9°C 39.6°F4.2°C 83% 2.3 mph SW3.7 kmh SW 4.6 mph7.4 kmh 30.06 in1017.9 mb - 0.00 in0.0 mm 0.00 in0.0 mm
12:30 AM 44.7°F7.1°C 39.9°F4.4°C 83% 1.2 mph SW1.9 kmh SW 3.5 mph5.6 kmh 30.06 in1017.9 mb - 0.00 in0.0 mm 0.00 in0.0 mm
12:20 AM 44.5°F6.9°C 39.7°F4.3°C 83% 1.2 mph WSW1.9 kmh WSW 3.5 mph5.6 kmh 30.06 in1017.9 mb - 0.00 in0.0 mm 0.00 in0.0 mm
12:10 AM 44.5°F6.9°C 39.7°F4.3°C 83% 2.3 mph SW3.7 kmh SW 4.6 mph7.4 kmh 30.06 in1017.9 mb - 0.00 in0.0 mm 0.00 in0.0 mm
12:00 AM 44.9°F7.2°C 39.7°F4.3°C 82% 2.3 mph SW3.7 kmh SW 3.5 mph5.6 kmh 30.06 in1017.9 mb - 0.00 in0.0 mm 0.00 in0.0 mm